Time;durP1;ratioP1;P1;durP2;ratioP2;P2;SDS_P1;SDS_P2;PMS_P1;PMS_P2;Temp;Humidity;BMP_temperature;BMP_pressure;BME280_temperature;BME280_humidity;BME280_pressure;Samples;Min_cycle;Max_cycle;Signal;HPM_P1;HPM_P2
2022/05/19 00:01:13;;;;;;;3.72;0.90;;;;;;;17.46;22.59;99804.66;4488860;31;20080;-83
2022/05/19 00:03:39;;;;;;;3.67;0.75;;;;;;;17.48;22.06;99802.75;4489311;31;20104;-83
2022/05/19 00:06:06;;;;;;;3.05;0.90;;;;;;;17.45;22.35;99801.16;4475846;31;20470;-84
2022/05/19 00:08:32;;;;;;;4.15;0.80;;;;;;;17.42;22.67;99806.69;4475815;31;20232;-83
2022/05/19 00:11:00;;;;;;;3.10;0.80;;;;;;;17.46;22.75;99794.00;4503211;31;20108;-83
2022/05/19 00:13:26;;;;;;;;;;;;;;;17.38;22.51;99805.16;4489254;31;20451;-84
2022/05/19 00:15:51;;;;;;;4.70;0.80;;;;;;;17.47;22.28;99803.72;4503307;31;19982;-83
2022/05/19 00:18:17;;;;;;;2.60;0.85;;;;;;;17.40;22.49;99805.06;4475666;31;20080;-84
2022/05/19 00:20:43;;;;;;;3.05;0.90;;;;;;;17.39;22.63;99808.72;4488822;31;20367;-84
2022/05/19 00:23:08;;;;;;;3.17;0.82;;;;;;;17.35;22.76;99802.72;4475636;31;20116;-84
2022/05/19 00:25:33;;;;;;;3.15;0.90;;;;;;;17.38;22.94;99805.16;4503199;31;20325;-84
2022/05/19 00:27:59;;;;;;;4.82;1.00;;;;;;;17.41;23.59;99802.31;4503328;31;20444;-84
2022/05/19 00:30:24;;;;;;;4.10;1.33;;;;;;;17.34;23.76;99809.00;4503110;31;20080;-85
2022/05/19 00:32:50;;;;;;;4.35;0.90;;;;;;;17.26;23.75;99803.34;4502906;31;20131;-85
2022/05/19 00:35:16;;;;;;;3.20;0.85;;;;;;;17.24;23.25;99803.44;4503179;31;20149;-84
2022/05/19 00:37:41;;;;;;;2.90;0.70;;;;;;;17.18;23.25;99803.84;4489153;31;20147;-83
2022/05/19 00:40:08;;;;;;;4.12;1.00;;;;;;;17.14;23.09;99801.50;4488729;31;20135;-82
2022/05/19 00:42:43;;;;;;;5.10;1.20;;;;;;;17.15;23.75;99800.53;4488520;31;20099;-83
2022/05/19 00:45:10;;;;;;;3.72;1.00;;;;;;;17.04;23.97;99798.56;4476737;31;20170;-83
2022/05/19 00:47:39;;;;;;;3.47;0.80;;;;;;;16.94;24.03;99805.44;4503091;31;20084;-84
2022/05/19 00:50:07;;;;;;;2.25;0.70;;;;;;;16.69;24.51;99807.84;4488562;31;20071;-83
2022/05/19 00:52:39;;;;;;;2.15;0.57;;;;;;;16.64;24.87;99804.59;4488537;31;20435;-83
2022/05/19 00:55:09;;;;;;;3.65;0.80;;;;;;;16.48;24.40;99802.06;4488785;31;20122;-83
2022/05/19 00:57:38;;;;;;;4.18;0.80;;;;;;;16.26;24.75;99801.69;4488762;31;20123;-84
2022/05/19 01:00:11;;;;;;;2.50;0.95;;;;;;;16.66;24.39;99805.38;4503065;31;20087;-84
2022/05/19 01:02:39;;;;;;;2.60;0.75;;;;;;;16.50;24.49;99802.81;4488376;31;20127;-84
2022/05/19 01:05:12;;;;;;;2.90;0.70;;;;;;;16.71;24.36;99800.63;4475788;31;20439;-83
2022/05/19 01:07:56;;;;;;;6.78;1.30;;;;;;;16.82;24.58;99807.06;4488617;31;20796;-84
2022/05/19 01:10:21;;;;;;;7.62;1.20;;;;;;;16.84;25.01;99807.84;4502844;31;20138;-84
2022/05/19 01:12:49;;;;;;;4.32;0.93;;;;;;;16.89;25.01;99803.94;4502845;31;20111;-84
2022/05/19 01:15:14;;;;;;;;;;;;;;;16.87;24.58;99799.66;4488942;31;20463;-84
2022/05/19 01:17:40;;;;;;;4.03;0.80;;;;;;;16.92;24.41;99802.91;4502918;31;19987;-84
2022/05/19 01:20:12;;;;;;;5.28;0.90;;;;;;;16.88;24.78;99809.34;4488279;31;20107;-84
2022/05/19 01:22:47;;;;;;;4.45;0.90;;;;;;;16.93;25.23;99804.59;4488437;31;20122;-84
2022/05/19 01:25:38;;;;;;;3.65;0.90;;;;;;;16.88;25.36;99802.22;4488449;31;20129;-84
2022/05/19 01:28:04;;;;;;;3.37;0.88;;;;;;;16.88;26.42;99804.00;4503090;31;20122;-84
2022/05/19 01:30:29;;;;;;;6.95;1.40;;;;;;;16.83;26.50;99814.12;4502794;31;20079;-84
2022/05/19 01:32:55;;;;;;;5.65;1.10;;;;;;;16.80;26.39;99811.63;4502476;31;20114;-84
2022/05/19 01:35:21;;;;;;;4.70;1.08;;;;;;;16.78;26.73;99810.84;4488489;31;20478;-83
2022/05/19 01:37:47;;;;;;;3.03;0.93;;;;;;;16.74;27.71;99810.19;4488328;31;20088;-83
2022/05/19 01:40:18;;;;;;;3.42;0.90;;;;;;;16.55;26.80;99805.19;4502529;31;20411;-85
2022/05/19 01:42:50;;;;;;;3.45;1.00;;;;;;;16.53;26.56;99807.09;4488141;31;20112;-85
2022/05/19 01:45:28;;;;;;;5.15;1.30;;;;;;;16.52;27.06;99808.91;4502615;31;20118;-85
2022/05/19 01:48:29;;;;;;;3.97;1.00;;;;;;;16.52;27.69;99806.25;4502627;31;20147;-85
2022/05/19 01:51:06;;;;;;;5.95;1.27;;;;;;;16.52;28.41;99810.72;4502467;31;20092;-84
2022/05/19 01:53:54;;;;;;;6.30;1.20;;;;;;;16.45;28.55;99806.72;4475105;31;20112;-85
2022/05/19 01:56:53;;;;;;;4.00;1.25;;;;;;;16.40;28.62;99809.69;4502512;31;20160;-85
2022/05/19 01:59:35;;;;;;;3.28;1.17;;;;;;;16.39;28.72;99812.44;4501800;31;20084;-85
2022/05/19 02:02:04;;;;;;;6.20;1.60;;;;;;;16.40;28.82;99811.47;4475030;31;20496;-84
2022/05/19 02:04:38;;;;;;;10.85;2.35;;;;;;;16.20;28.56;99813.56;4502259;31;20122;-84
2022/05/19 02:07:05;;;;;;;10.75;2.95;;;;;;;16.22;28.81;99816.97;4488015;31;20091;-84
2022/05/19 02:09:36;;;;;;;9.45;3.58;;;;;;;16.09;28.78;99824.00;4487843;31;20128;-84
2022/05/19 02:12:02;;;;;;;10.48;3.28;;;;;;;16.04;28.98;99818.97;4487864;31;20080;-84
2022/05/19 02:14:34;;;;;;;6.37;1.90;;;;;;;16.07;29.54;99818.78;4503463;31;20490;-84
2022/05/19 02:17:02;;;;;;;6.57;1.60;;;;;;;16.03;29.65;99816.38;4476595;31;20104;-83
2022/05/19 02:19:39;;;;;;;4.70;1.20;;;;;;;15.99;29.95;99805.09;4489680;31;20083;-84
2022/05/19 02:22:06;;;;;;;4.07;1.00;;;;;;;15.92;30.50;99814.41;4476652;31;20087;-84
2022/05/19 02:24:34;;;;;;;3.28;1.00;;;;;;;15.86;30.07;99815.63;4489696;31;20132;-84
2022/05/19 02:26:59;;;;;;;;;;;;;;;15.84;30.16;99812.19;4490014;31;20104;-84
2022/05/19 02:29:26;;;;;;;4.65;0.95;;;;;;;15.94;30.79;99816.97;4489582;31;20299;-85
2022/05/19 02:31:52;;;;;;;3.72;1.02;;;;;;;15.87;30.90;99819.13;4489743;31;20081;-84
2022/05/19 02:34:17;;;;;;;3.08;1.00;;;;;;;15.84;30.93;99825.50;4489432;31;20100;-83
2022/05/19 02:36:43;;;;;;;3.78;1.20;;;;;;;15.80;30.52;99818.66;4503956;31;20176;-85
2022/05/19 02:39:09;;;;;;;3.72;1.00;;;;;;;15.76;30.40;99825.09;4503974;31;20474;-84
2022/05/19 02:41:35;;;;;;;4.47;1.17;;;;;;;15.81;30.44;99832.78;4489471;31;20080;-83
2022/05/19 02:44:00;;;;;;;4.45;1.00;;;;;;;15.73;30.56;99838.53;4489561;31;20095;-83
2022/05/19 02:46:26;;;;;;;3.70;1.10;;;;;;;15.72;30.67;99835.00;4489307;31;20153;-83
2022/05/19 02:48:51;;;;;;;6.40;1.10;;;;;;;15.71;30.82;99837.75;4489527;31;20118;-83
2022/05/19 02:51:17;;;;;;;3.83;1.10;;;;;;;15.69;30.95;99834.34;4503793;31;20099;-82
2022/05/19 02:53:42;;;;;;;3.10;1.20;;;;;;;15.75;30.81;99836.66;4489425;31;20138;-82
2022/05/19 02:56:08;;;;;;;5.03;1.40;;;;;;;15.75;30.97;99839.31;4503621;31;20103;-83
2022/05/19 02:58:33;;;;;;;4.80;1.30;;;;;;;15.72;30.84;99842.09;4503797;31;20457;-83
2022/05/19 03:00:59;;;;;;;6.00;1.52;;;;;;;15.73;31.61;99839.41;4503847;31;20147;-83
2022/05/19 03:03:24;;;;;;;6.90;1.52;;;;;;;15.68;32.67;99846.78;4489374;31;20451;-82
2022/05/19 03:05:50;;;;;;;5.62;1.60;;;;;;;15.36;33.90;99850.44;4489450;31;20096;-84
2022/05/19 03:08:15;;;;;;;6.18;1.60;;;;;;;15.61;33.54;99840.09;4503721;31;20431;-83
2022/05/19 03:10:42;;;;;;;7.18;1.70;;;;;;;15.67;33.80;99836.22;4489266;31;20080;-83
2022/05/19 03:13:15;;;;;;;5.80;1.60;;;;;;;15.72;34.12;99844.75;4489233;31;20401;-84
2022/05/19 03:15:40;;;;;;;3.53;1.27;;;;;;;15.76;34.31;99842.81;4489301;31;20126;-84
2022/05/19 03:18:06;;;;;;;5.40;1.40;;;;;;;15.81;34.36;99841.59;4489264;31;20083;-84
2022/05/19 03:20:32;;;;;;;6.43;1.30;;;;;;;15.85;34.40;99847.59;4503890;31;20098;-84
2022/05/19 03:22:58;;;;;;;4.40;1.40;;;;;;;15.85;34.44;99847.59;4503850;31;20096;-84
2022/05/19 03:25:23;;;;;;;5.35;1.42;;;;;;;15.91;34.44;99849.88;4503806;31;20435;-84
2022/05/19 03:27:48;;;;;;;5.35;1.40;;;;;;;15.96;34.45;99842.50;4489488;31;20439;-84
2022/05/19 03:30:16;;;;;;;5.55;1.48;;;;;;;16.05;34.35;99847.25;4503840;31;20107;-84
2022/05/19 03:32:42;;;;;;;6.55;1.58;;;;;;;16.07;34.40;99847.16;4503637;31;20167;-83
2022/05/19 03:35:08;;;;;;;4.03;1.30;;;;;;;16.16;34.32;99853.72;4476310;31;20104;-84
2022/05/19 03:37:33;;;;;;;4.90;1.42;;;;;;;16.23;34.34;99853.25;4489097;31;20115;-82
2022/05/19 03:39:59;;;;;;;6.22;1.50;;;;;;;16.31;34.35;99858.97;4503511;31;20084;-83
2022/05/19 03:42:24;;;;;;;6.68;1.40;;;;;;;16.43;34.20;99857.34;4489099;31;20127;-84
2022/05/19 03:44:50;;;;;;;5.35;1.50;;;;;;;16.47;34.15;99858.84;4503413;31;20103;-84
2022/05/19 03:47:15;;;;;;;5.12;1.37;;;;;;;16.59;33.94;99853.72;4488982;31;20093;-84
2022/05/19 03:49:41;;;;;;;6.82;1.60;;;;;;;16.70;33.96;99849.44;4503393;31;20110;-84
2022/05/19 03:52:06;;;;;;;4.83;1.13;;;;;;;16.85;34.01;99860.12;4503337;31;20096;-84
2022/05/19 03:54:32;;;;;;;5.60;1.50;;;;;;;16.98;34.03;99858.38;4503651;31;20102;-84
2022/05/19 03:56:57;;;;;;;6.57;1.35;;;;;;;17.14;33.88;99862.72;4503684;31;20416;-84
2022/05/19 03:59:23;;;;;;;6.22;1.45;;;;;;;17.25;33.91;99868.22;4503610;31;20076;-84
2022/05/19 04:01:48;;;;;;;3.95;1.35;;;;;;;17.41;33.90;99860.06;4489230;31;20156;-84
2022/05/19 04:04:14;;;;;;;5.15;1.45;;;;;;;17.54;33.60;99860.09;4503708;31;20083;-84
2022/05/19 04:06:39;;;;;;;6.82;1.60;;;;;;;17.69;34.14;99865.28;4488911;31;20107;-84
2022/05/19 04:09:05;;;;;;;6.03;1.52;;;;;;;17.79;34.29;99856.66;4503612;31;20317;-84
2022/05/19 04:11:32;;;;;;;7.90;1.70;;;;;;;17.96;34.52;99861.72;4503641;31;20366;-83
2022/05/19 04:13:58;;;;;;;4.70;1.30;;;;;;;18.19;35.61;99861.97;4503467;31;20079;-83
2022/05/19 04:16:23;;;;;;;6.53;1.40;;;;;;;18.30;34.62;99870.09;4489259;31;20154;-84
2022/05/19 04:18:49;;;;;;;4.45;1.33;;;;;;;18.30;34.20;99870.09;4503425;31;20112;-82
2022/05/19 04:21:14;;;;;;;5.37;1.20;;;;;;;18.41;33.65;99872.88;4503477;31;20080;-83
2022/05/19 04:23:39;;;;;;;5.28;1.35;;;;;;;18.50;32.99;99866.00;4489151;31;20098;-83
2022/05/19 04:26:05;;;;;;;6.90;1.23;;;;;;;18.49;32.26;99869.66;4503423;31;20139;-82
2022/05/19 04:28:30;;;;;;;6.40;1.10;;;;;;;18.53;32.21;99876.47;4489013;31;20076;-84
2022/05/19 04:30:56;;;;;;;6.75;1.40;;;;;;;18.63;32.33;99868.69;4489066;31;20147;-84
2022/05/19 04:33:21;;;;;;;4.18;0.95;;;;;;;18.67;31.37;99876.34;4488776;31;20099;-84
2022/05/19 04:35:47;;;;;;;6.90;1.60;;;;;;;18.72;31.46;99875.19;4488712;31;20080;-83
2022/05/19 04:38:15;;;;;;;5.80;1.40;;;;;;;18.87;31.95;99874.09;4484693;32;20142;-83
2022/05/19 04:40:44;;;;;;;7.60;1.30;;;;;;;18.98;32.04;99879.53;4472899;31;20546;-79
2022/05/19 04:43:10;;;;;;;5.20;1.40;;;;;;;19.09;32.05;99876.09;4485154;32;20122;-80
2022/05/19 04:45:36;;;;;;;2.65;0.93;;;;;;;19.23;32.16;99880.44;4477763;31;20444;-79
2022/05/19 04:48:02;;;;;;;6.47;1.58;;;;;;;19.45;31.89;99874.34;4481796;31;20088;-79
2022/05/19 04:50:28;;;;;;;6.85;1.35;;;;;;;19.52;31.37;99869.41;4488584;31;20091;-79
2022/05/19 04:52:57;;;;;;;4.93;1.20;;;;;;;19.76;30.85;99880.97;4488703;31;20401;-79
2022/05/19 04:55:22;;;;;;;4.62;1.20;;;;;;;19.78;30.56;99876.38;4488678;31;20146;-79
2022/05/19 04:57:48;;;;;;;4.07;1.12;;;;;;;20.01;30.38;99874.62;4482363;31;20092;-82
2022/05/19 05:00:15;;;;;;;3.53;1.30;;;;;;;20.01;29.87;99877.28;4486597;31;20473;-81
2022/05/19 05:02:40;;;;;;;4.62;1.30;;;;;;;20.07;29.55;99877.78;4476722;31;20507;-79
2022/05/19 05:05:06;;;;;;;5.97;1.15;;;;;;;20.29;28.85;99877.00;4480643;31;20110;-77
2022/05/19 05:07:32;;;;;;;7.25;1.30;;;;;;;20.26;28.56;99879.87;4485600;31;20089;-79
2022/05/19 05:09:58;;;;;;;5.90;1.55;;;;;;;20.18;29.15;99880.47;4466527;31;20101;-79
2022/05/19 05:12:23;;;;;;;5.32;1.40;;;;;;;20.22;28.86;99884.63;4491035;31;20135;-79
2022/05/19 05:14:49;;;;;;;4.72;1.23;;;;;;;20.26;29.16;99888.75;4477861;31;20149;-80
2022/05/19 05:17:15;;;;;;;6.68;1.90;;;;;;;20.47;29.15;99883.56;4480685;31;20394;-84
2022/05/19 05:19:41;;;;;;;6.97;1.40;;;;;;;20.40;28.99;99885.88;4482074;31;20134;-88
2022/05/19 05:22:06;;;;;;;8.13;2.00;;;;;;;20.46;29.49;99884.56;4487694;31;20096;-84
2022/05/19 05:24:32;;;;;;;6.82;1.90;;;;;;;20.48;29.56;99884.44;4491883;31;20426;-84
2022/05/19 05:26:58;;;;;;;8.88;2.10;;;;;;;20.60;30.25;99884.34;4498055;31;20128;-83
2022/05/19 05:29:23;;;;;;;8.80;2.15;;;;;;;20.62;30.75;99895.78;4479019;31;20113;-84
2022/05/19 05:31:48;;;;;;;11.55;2.50;;;;;;;20.69;30.51;99885.44;4487121;31;20179;-84
2022/05/19 05:34:14;;;;;;;9.35;2.30;;;;;;;20.79;30.46;99894.44;4477157;31;20111;-84
2022/05/19 05:36:39;;;;;;;9.20;2.15;;;;;;;20.85;30.74;99895.78;4488128;31;20376;-84
2022/05/19 05:39:05;;;;;;;9.20;2.12;;;;;;;20.93;30.06;99896.03;4486323;31;20170;-84
2022/05/19 05:41:30;;;;;;;8.65;2.22;;;;;;;21.09;30.14;99894.78;4479475;32;20154;-84
2022/05/19 05:43:56;;;;;;;7.65;2.22;;;;;;;20.95;30.38;99896.75;4492177;31;20099;-84
2022/05/19 05:46:21;;;;;;;7.95;2.28;;;;;;;21.02;30.44;99897.13;4491104;31;20100;-84
2022/05/19 05:48:48;;;;;;;8.38;2.20;;;;;;;21.25;29.83;99900.63;4489690;31;20141;-84
2022/05/19 05:51:16;;;;;;;7.45;2.25;;;;;;;21.38;29.84;99904.00;4484048;31;20126;-84
2022/05/19 05:53:42;;;;;;;7.25;2.30;;;;;;;21.42;29.93;99901.91;4481415;31;20155;-83
2022/05/19 05:56:09;;;;;;;7.22;1.85;;;;;;;21.49;29.48;99907.66;4489483;31;20084;-84
2022/05/19 05:58:35;;;;;;;7.68;2.20;;;;;;;21.56;29.65;99914.22;4486570;32;20088;-82
2022/05/19 06:01:06;;;;;;;8.43;2.67;;;;;;;21.55;29.68;99904.47;4472295;32;20118;-83
2022/05/19 06:03:32;;;;;;;10.18;2.28;;;;;;;21.62;28.89;99902.16;4472324;32;20088;-85
2022/05/19 06:05:58;;;;;;;10.55;2.80;;;;;;;21.55;29.14;99899.94;4472316;32;20107;-82
2022/05/19 06:08:23;;;;;;;7.85;2.30;;;;;;;21.59;29.28;99897.88;4486824;32;20096;-82
2022/05/19 06:10:49;;;;;;;10.13;2.65;;;;;;;21.62;28.58;99891.41;4472487;32;20399;-82
2022/05/19 06:13:15;;;;;;;10.35;2.80;;;;;;;21.67;28.80;99894.56;4486623;32;20424;-81
2022/05/19 06:15:41;;;;;;;11.63;2.58;;;;;;;21.80;28.56;99889.88;4472373;32;20145;-84
2022/05/19 06:18:07;;;;;;;10.75;2.95;;;;;;;21.80;28.75;99893.38;4486671;32;20096;-83
2022/05/19 06:20:32;;;;;;;9.43;2.47;;;;;;;21.89;28.24;99899.81;4480993;32;20391;-82
2022/05/19 06:22:58;;;;;;;7.28;2.35;;;;;;;22.05;28.20;99891.31;4494025;31;20080;-82
2022/05/19 06:25:24;;;;;;;12.85;2.75;;;;;;;22.07;27.98;99889.38;4482882;31;20107;-83
2022/05/19 06:27:50;;;;;;;8.85;2.45;;;;;;;22.23;26.91;99893.41;4490865;31;20482;-83
2022/05/19 06:30:17;;;;;;;9.60;2.85;;;;;;;22.14;27.24;99897.75;4468423;31;20127;-82
2022/05/19 06:32:43;;;;;;;11.38;2.62;;;;;;;22.03;27.67;99900.50;4489534;31;20122;-79
2022/05/19 06:35:11;;;;;;;9.13;2.53;;;;;;;21.99;26.57;99906.12;4481258;32;20178;-82
2022/05/19 06:37:37;;;;;;;11.32;2.55;;;;;;;22.01;27.09;99907.81;4481563;31;20181;-82
2022/05/19 06:40:03;;;;;;;12.00;2.70;;;;;;;21.97;27.23;99908.06;4481379;32;20164;-81
2022/05/19 06:42:28;;;;;;;11.38;2.97;;;;;;;21.94;26.68;99902.13;4491187;31;20072;-83
2022/05/19 06:44:56;;;;;;;9.57;2.60;;;;;;;21.92;26.31;99910.31;4487384;31;20115;-82
2022/05/19 06:47:21;;;;;;;9.63;2.95;;;;;;;22.02;26.59;99899.66;4481075;32;20101;-84
2022/05/19 06:49:51;;;;;;;11.77;2.67;;;;;;;21.89;26.49;99907.88;4482348;31;20127;-82
2022/05/19 06:52:22;;;;;;;11.55;2.60;;;;;;;21.90;26.95;99911.41;4487524;31;20172;-83
2022/05/19 06:54:49;;;;;;;9.75;2.90;;;;;;;21.77;27.40;99920.50;4468042;32;20163;-82
2022/05/19 06:57:15;;;;;;;11.12;2.72;;;;;;;21.99;26.42;99911.47;4490310;31;20096;-85
2022/05/19 06:59:41;;;;;;;10.32;2.67;;;;;;;22.09;26.90;99905.34;4498480;31;20144;-85
2022/05/19 07:02:09;;;;;;;10.23;2.47;;;;;;;21.90;26.67;99911.41;4503869;31;20557;-80
2022/05/19 07:04:36;;;;;;;8.35;2.55;;;;;;;22.11;25.76;99917.63;4496599;31;20084;-81
2022/05/19 07:07:02;;;;;;;6.43;1.73;;;;;;;22.16;25.18;99914.59;4486185;32;20134;-80
2022/05/19 07:09:28;;;;;;;5.95;1.42;;;;;;;22.21;22.84;99906.12;4495571;31;20092;-81
2022/05/19 07:11:53;;;;;;;6.07;1.30;;;;;;;22.08;23.00;99911.66;4494415;31;20096;-81
2022/05/19 07:14:19;;;;;;;6.55;1.60;;;;;;;22.28;21.11;99899.28;4495420;31;20127;-80
2022/05/19 07:16:48;;;;;;;6.55;1.40;;;;;;;22.25;21.65;99907.59;4503762;31;20426;-81
2022/05/19 07:21:57;;;;;;;6.05;1.40;;;;;;;22.19;20.88;99914.31;4491543;31;20237;-81
2022/05/19 07:24:23;;;;;;;6.50;1.50;;;;;;;22.17;21.33;99914.47;4503525;31;20076;-81
2022/05/19 07:26:51;;;;;;;6.65;1.70;;;;;;;22.47;20.76;99910.16;4503690;31;20110;-81
2022/05/19 07:29:18;;;;;;;6.82;1.52;;;;;;;22.50;20.85;99920.62;4503698;31;20155;-81
2022/05/19 07:31:46;;;;;;;5.00;1.45;;;;;;;22.61;21.05;99913.47;4504002;31;20110;-81
2022/05/19 07:34:13;;;;;;;5.72;1.60;;;;;;;22.76;21.04;99904.91;4503687;31;20106;-81
2022/05/19 07:36:38;;;;;;;5.10;1.70;;;;;;;22.95;21.28;99903.31;4503613;31;20088;-81
2022/05/19 07:39:04;;;;;;;6.28;1.70;;;;;;;22.92;21.07;99908.94;4489277;31;20481;-81
2022/05/19 07:41:30;;;;;;;7.43;1.77;;;;;;;23.14;21.14;99900.72;4503592;31;20176;-81
2022/05/19 07:43:57;;;;;;;6.45;2.00;;;;;;;23.25;20.70;99901.56;4503436;31;20426;-81
2022/05/19 07:46:25;;;;;;;9.93;2.20;;;;;;;23.23;21.03;99892.81;4503580;31;20100;-81
2022/05/19 07:48:50;;;;;;;8.88;2.20;;;;;;;23.28;21.24;99899.47;4503464;31;20478;-81
2022/05/19 07:51:16;;;;;;;8.82;2.33;;;;;;;23.08;21.67;99895.88;4503426;31;20106;-81
2022/05/19 07:53:41;;;;;;;7.95;2.00;;;;;;;23.60;21.11;99893.00;4503214;31;20132;-81
2022/05/19 07:56:07;;;;;;;6.72;1.65;;;;;;;23.71;20.74;99897.41;4489084;31;20096;-81
2022/05/19 07:58:32;;;;;;;8.27;1.83;;;;;;;23.68;20.46;99901.22;4503472;31;20103;-81
2022/05/19 08:00:59;;;;;;;8.52;2.00;;;;;;;23.76;21.15;99897.84;4503326;31;20080;-81
2022/05/19 08:03:25;;;;;;;7.28;1.80;;;;;;;23.87;20.92;99910.31;4503372;31;20088;-81
2022/05/19 08:05:51;;;;;;;5.65;1.70;;;;;;;23.86;20.47;99896.00;4503303;31;20100;-81
2022/05/19 08:08:17;;;;;;;8.45;1.62;;;;;;;23.94;19.57;99906.06;4489026;31;20126;-81
2022/05/19 08:10:42;;;;;;;6.40;1.60;;;;;;;24.10;19.31;99902.78;4503226;31;20140;-81
2022/05/19 08:15:52;;;;;;;4.30;1.50;;;;;;;23.83;19.30;99904.34;4503382;31;20155;-81
2022/05/19 08:18:21;;;;;;;5.12;1.45;;;;;;;24.04;18.85;99906.06;4488857;31;20116;-81
2022/05/19 08:21:01;;;;;;;4.07;1.33;;;;;;;23.42;18.56;99900.91;4503235;31;20083;-81
2022/05/19 08:23:30;;;;;;;6.57;1.62;;;;;;;24.01;18.22;99906.34;4488903;31;20076;-81
2022/05/19 08:25:56;;;;;;;5.00;1.40;;;;;;;23.87;17.13;99902.25;4503209;31;20108;-81
2022/05/19 08:28:28;;;;;;;4.72;1.60;;;;;;;23.87;17.85;99900.38;4488851;31;20115;-81
2022/05/19 08:30:59;;;;;;;7.93;1.55;;;;;;;24.00;17.52;99899.28;4503193;31;20110;-81
2022/05/19 08:33:25;;;;;;;5.60;1.67;;;;;;;23.97;18.38;99896.84;4502944;31;20076;-81
2022/05/19 08:35:51;;;;;;;4.65;1.40;;;;;;;23.81;18.32;99905.50;4488921;31;20134;-81
2022/05/19 08:38:17;;;;;;;6.07;1.80;;;;;;;24.11;17.97;99897.28;4489004;31;20100;-81
2022/05/19 08:40:47;;;;;;;7.22;1.70;;;;;;;24.03;18.20;99899.84;4503120;31;20114;-81
2022/05/19 08:43:14;;;;;;;6.50;1.70;;;;;;;24.10;17.44;99909.03;4488840;31;20114;-81
2022/05/19 08:45:42;;;;;;;7.75;1.80;;;;;;;24.20;18.64;99900.94;4489068;31;20151;-80
2022/05/19 08:48:19;;;;;;;5.53;1.58;;;;;;;23.72;18.01;99905.34;4503151;31;20163;-81
2022/05/19 08:50:46;;;;;;;4.45;1.40;;;;;;;23.84;18.59;99899.84;4488895;31;20147;-81
2022/05/19 08:53:12;;;;;;;;;;;;;;;23.78;19.17;99894.97;4475746;31;20148;-81
2022/05/19 08:55:43;;;;;;;4.95;1.50;;;;;;;24.02;18.83;99894.59;4503131;31;19971;-81
2022/05/19 08:58:30;;;;;;;6.10;1.35;;;;;;;23.94;19.59;99901.53;4488614;31;20100;-81
2022/05/19 09:01:03;;;;;;;5.53;1.52;;;;;;;23.97;18.58;99900.41;4503020;31;20155;-81
2022/05/19 09:03:37;;;;;;;4.22;1.30;;;;;;;23.90;18.39;99901.97;4488758;31;20106;-81
2022/05/19 09:06:12;;;;;;;5.60;1.37;;;;;;;24.05;18.40;99894.28;4488576;31;20479;-81
2022/05/19 09:09:01;;;;;;;5.22;1.40;;;;;;;24.01;19.22;99896.44;4503048;31;20092;-81
2022/05/19 09:11:52;;;;;;;6.05;1.50;;;;;;;24.07;18.40;99897.72;4502923;31;20151;-81
2022/05/19 09:14:26;;;;;;;3.87;1.45;;;;;;;24.11;19.02;99894.56;4502881;31;20484;-81
2022/05/19 09:16:55;;;;;;;4.15;1.30;;;;;;;24.07;18.75;99892.31;4503008;31;20085;-81
2022/05/19 09:19:27;;;;;;;6.22;1.55;;;;;;;23.86;19.35;99893.31;4488501;31;20112;-81
2022/05/19 09:22:17;;;;;;;5.32;1.35;;;;;;;24.04;19.31;99887.22;4502891;31;20092;-81
2022/05/19 09:24:46;;;;;;;4.15;1.40;;;;;;;24.05;19.29;99897.84;4503070;31;20344;-81
2022/05/19 09:27:12;;;;;;;4.18;1.10;;;;;;;24.03;19.64;99886.37;4488565;31;20131;-81
2022/05/19 09:29:43;;;;;;;4.83;1.17;;;;;;;24.06;19.54;99882.53;4502779;31;20123;-81
2022/05/19 09:32:13;;;;;;;7.62;1.85;;;;;;;23.98;19.18;99887.78;4502715;31;20466;-81
2022/05/19 09:34:46;;;;;;;4.87;1.30;;;;;;;23.93;19.99;99888.22;4502485;31;20185;-79
2022/05/19 09:37:40;;;;;;;4.80;1.30;;;;;;;24.13;19.98;99873.75;4488551;31;20182;-78
2022/05/19 09:40:11;;;;;;;4.30;1.10;;;;;;;24.03;20.16;99883.69;4502793;31;20421;-79
2022/05/19 09:42:59;;;;;;;4.62;1.20;;;;;;;24.12;19.72;99873.88;4502618;31;20107;-78
2022/05/19 09:45:27;;;;;;;6.07;1.17;;;;;;;24.20;19.82;99873.16;4488311;31;20132;-78
2022/05/19 09:47:58;;;;;;;7.18;1.45;;;;;;;24.19;19.85;99882.25;4488218;31;20119;-79
2022/05/19 09:50:31;;;;;;;4.55;1.50;;;;;;;24.01;20.30;99880.28;4488221;31;20118;-79
2022/05/19 09:53:21;;;;;;;4.12;1.25;;;;;;;23.80;19.88;99875.06;4488500;31;20072;-78
2022/05/19 09:55:54;;;;;;;4.60;1.30;;;;;;;23.97;20.08;99860.03;4502604;31;20098;-79
2022/05/19 09:58:20;;;;;;;4.12;1.20;;;;;;;23.87;20.95;99861.88;4488084;31;20155;-79
2022/05/19 10:00:50;;;;;;;4.00;1.12;;;;;;;24.04;19.74;99855.75;4502454;31;20092;-78
2022/05/19 10:03:26;;;;;;;6.10;1.40;;;;;;;24.12;19.75;99855.87;4488052;31;20151;-78
2022/05/19 10:05:57;;;;;;;6.12;1.30;;;;;;;23.95;20.68;99870.06;4487959;31;20087;-79
2022/05/19 10:08:27;;;;;;;4.80;1.23;;;;;;;23.93;20.19;99846.03;4502353;31;20118;-79
2022/05/19 10:11:18;;;;;;;4.78;1.40;;;;;;;24.11;20.28;99840.75;4487966;31;20092;-78
2022/05/19 10:13:46;;;;;;;4.60;1.23;;;;;;;24.20;19.64;99843.53;4502234;31;20114;-79
2022/05/19 10:16:37;;;;;;;3.90;1.20;;;;;;;24.10;19.55;99852.47;4502178;31;20087;-79
2022/05/19 10:19:33;;;;;;;4.40;1.40;;;;;;;24.11;19.93;99854.19;4502487;31;20088;-79
2022/05/19 10:22:23;;;;;;;3.90;1.00;;;;;;;24.17;18.60;99846.53;4488030;31;20112;-78
2022/05/19 10:25:05;;;;;;;4.20;0.90;;;;;;;23.89;18.90;99852.69;4487833;31;20088;-78
2022/05/19 10:31:12;;;;;;;4.97;1.15;;;;;;;23.77;20.55;99847.56;4502203;31;20187;-79
2022/05/19 10:34:09;;;;;;;3.33;1.20;;;;;;;23.70;19.47;99837.38;4501852;31;20083;-78
2022/05/19 10:36:43;;;;;;;4.75;1.15;;;;;;;24.10;19.64;99827.41;4504071;31;20076;-79
2022/05/19 10:39:42;;;;;;;3.03;1.10;;;;;;;24.04;19.41;99830.69;4489536;31;20080;-78
2022/05/19 10:42:13;;;;;;;6.20;1.10;;;;;;;24.14;19.69;99834.19;4489523;31;20463;-79
2022/05/19 10:44:54;;;;;;;3.85;1.08;;;;;;;23.92;18.53;99825.47;4504075;31;20110;-79
2022/05/19 10:47:26;;;;;;;3.55;1.05;;;;;;;24.21;19.43;99821.03;4504041;31;20473;-79
2022/05/19 10:50:16;;;;;;;6.05;1.15;;;;;;;24.19;18.85;99818.47;4489582;31;20344;-79
2022/05/19 10:52:55;;;;;;;3.53;1.02;;;;;;;24.32;18.85;99810.91;4503993;31;20416;-79
2022/05/19 10:55:44;;;;;;;4.95;1.20;;;;;;;24.13;19.20;99803.75;4503881;31;20147;-78
2022/05/19 10:58:15;;;;;;;5.47;1.20;;;;;;;24.31;19.78;99811.06;4491211;31;20076;-79
2022/05/19 11:01:11;;;;;;;2.58;0.90;;;;;;;24.23;19.10;99798.34;4503822;31;20076;-79
2022/05/19 11:04:06;;;;;;;4.87;1.10;;;;;;;24.26;18.54;99798.06;4503832;31;20157;-78
2022/05/19 11:06:59;;;;;;;4.60;0.95;;;;;;;24.34;18.78;99781.16;4504067;31;20088;-78
2022/05/19 11:09:27;;;;;;;6.03;1.08;;;;;;;24.32;18.90;99780.47;4503681;31;20075;-79
2022/05/19 11:12:14;;;;;;;2.95;1.10;;;;;;;24.37;18.03;99783.53;4489426;31;20102;-79
2022/05/19 11:15:01;;;;;;;7.47;1.20;;;;;;;24.46;18.16;99782.66;4476387;31;20131;-79
2022/05/19 11:18:08;;;;;;;5.40;1.08;;;;;;;24.47;17.69;99780.81;4503772;31;20084;-79
2022/05/19 11:20:54;;;;;;;3.42;1.05;;;;;;;24.47;17.54;99772.72;4492810;31;20080;-79
2022/05/19 11:23:43;;;;;;;3.15;0.90;;;;;;;24.50;18.42;99775.13;4503767;31;20466;-78
2022/05/19 11:26:24;;;;;;;6.95;1.20;;;;;;;24.53;17.37;99764.06;4476197;31;20453;-79
2022/05/19 11:28:58;;;;;;;3.67;1.00;;;;;;;24.40;17.63;99760.88;4503833;31;20120;-79
2022/05/19 11:31:33;;;;;;;3.00;1.02;;;;;;;24.45;18.37;99767.47;4503671;31;20084;-79
2022/05/19 11:34:01;;;;;;;5.18;1.08;;;;;;;24.46;17.31;99761.09;4503279;31;20148;-78
2022/05/19 11:36:32;;;;;;;5.28;1.10;;;;;;;24.46;17.14;99750.31;4489251;31;20104;-79
2022/05/19 11:39:07;;;;;;;8.38;1.08;;;;;;;24.48;18.08;99752.88;4503634;31;20376;-79
2022/05/19 11:41:35;;;;;;;4.87;1.10;;;;;;;24.39;17.80;99751.91;4476269;31;20083;-79
2022/05/19 11:44:12;;;;;;;4.68;1.10;;;;;;;24.56;17.97;99746.78;4489185;31;20087;-79
2022/05/19 11:46:44;;;;;;;5.45;1.20;;;;;;;24.59;17.99;99746.47;4502822;31;20161;-79
2022/05/19 11:55:37;;;;;;;3.55;1.30;;;;;;;24.52;17.87;99740.84;4503476;31;20140;-79
2022/05/19 11:58:11;;;;;;;2.65;0.90;;;;;;;24.60;17.50;99730.16;4503643;31;20089;-79
2022/05/19 12:00:55;;;;;;;3.12;1.10;;;;;;;24.63;17.70;99739.78;4489153;31;20123;-79
2022/05/19 12:03:29;;;;;;;3.08;1.00;;;;;;;24.40;17.83;99729.38;4503395;31;20155;-79